createdAt,value
2018-12-21T01:01:27.477Z,95573.23
2018-12-21T01:06:30.835Z,95557.72
2018-12-21T01:11:34.176Z,95568.33
2018-12-21T01:16:37.513Z,95560.61
2018-12-21T01:21:40.858Z,95569.51
2018-12-21T01:26:44.190Z,95570.20
2018-12-21T02:35:12.261Z,95531.41
2018-12-21T02:40:15.616Z,95534.92
2018-12-21T02:45:18.957Z,95531.83
2018-12-21T02:50:23.065Z,95528.20
2018-12-21T02:55:26.402Z,95517.73
2018-12-21T03:00:29.744Z,95527.65
2018-12-21T04:02:36.053Z,95453.09
2018-12-21T04:07:39.395Z,95439.70
2018-12-21T04:12:43.505Z,95443.34
2018-12-21T04:17:46.838Z,95437.59
2018-12-21T04:22:50.942Z,95441.91
2018-12-21T04:27:54.286Z,95436.48
2018-12-21T05:30:52.660Z,95392.21
2018-12-21T05:35:55.993Z,95373.47
2018-12-21T05:41:03.696Z,95359.49
2018-12-21T05:46:07.027Z,95354.91
2018-12-21T05:51:10.366Z,95359.11
2018-12-21T05:56:13.712Z,95356.56
2018-12-21T07:04:38.304Z,95261.97
2018-12-21T07:09:41.649Z,95255.52
2018-12-21T07:14:44.977Z,95254.84
2018-12-21T07:19:48.311Z,95256.03
2018-12-21T07:24:52.414Z,95256.98
2018-12-21T07:29:55.771Z,95243.74
2018-12-21T08:32:01.023Z,95189.96
2018-12-21T08:37:04.646Z,95193.92
2018-12-21T08:42:07.995Z,95183.37
2018-12-21T08:47:11.384Z,95193.70
2018-12-21T08:52:15.477Z,95187.30
2018-12-21T08:57:18.897Z,95198.00
2018-12-21T10:05:44.795Z,95208.97
2018-12-21T10:10:50.607Z,95210.01
2018-12-21T10:15:52.286Z,95177.04
2018-12-21T10:20:55.623Z,95143.91
2018-12-21T10:25:58.981Z,95137.22
2018-12-21T10:31:02.330Z,95126.47
2018-12-21T11:33:07.671Z,94921.47
2018-12-21T11:38:11.026Z,94906.70
2018-12-21T11:43:14.372Z,94910.42
2018-12-21T11:48:17.745Z,94896.52
2018-12-21T11:53:21.092Z,94892.55
2018-12-21T11:58:24.437Z,94889.88
2018-12-21T13:01:12.833Z,94764.12
2018-12-21T13:06:16.153Z,94756.23
2018-12-21T13:11:19.488Z,94761.16
2018-12-21T13:16:22.841Z,94791.80
2018-12-21T13:21:26.193Z,94780.63
2018-12-21T13:26:29.526Z,94783.38
2018-12-21T14:34:56.684Z,94768.66
2018-12-21T14:40:00.035Z,94810.89
2018-12-21T14:45:03.431Z,94765.69
2018-12-21T14:50:06.922Z,94782.78
2018-12-21T14:55:10.305Z,94790.73
2018-12-21T15:00:14.410Z,94795.56
2018-12-21T16:02:21.001Z,94832.53
2018-12-21T16:07:24.349Z,94832.25
2018-12-21T16:12:27.682Z,94812.16
2018-12-21T16:17:31.028Z,94841.55
2018-12-21T16:22:42.109Z,94849.25
2018-12-21T16:27:37.739Z,94849.47
2018-12-21T16:32:41.852Z,94849.32
2018-12-21T16:38:16.134Z,94853.33
2018-12-21T16:49:40.499Z,94903.39
2018-12-21T16:54:47.474Z,94887.80
2018-12-21T16:59:50.830Z,94879.62
2018-12-21T17:04:54.673Z,94888.83
2018-12-21T17:10:00.893Z,94901.45
2018-12-21T17:15:06.068Z,94879.91
2018-12-21T17:20:10.430Z,94894.89
2018-12-21T17:25:14.133Z,94951.41
2018-12-21T17:30:17.775Z,94894.81
2018-12-21T17:35:21.686Z,94882.41
2018-12-21T17:40:25.488Z,94902.31
2018-12-21T17:45:29.266Z,94917.97
2018-12-21T17:50:48.140Z,94936.12
2018-12-21T17:55:52.050Z,94905.17
2018-12-21T18:00:55.655Z,94931.81
2018-12-21T18:05:59.082Z,94915.30
2018-12-21T18:11:12.301Z,94945.08
2018-12-21T18:16:15.932Z,94957.34
2018-12-21T18:21:19.627Z,94946.66
2018-12-21T18:26:24.064Z,94940.34
2018-12-21T18:31:30.119Z,94957.00
2018-12-21T18:36:34.030Z,94967.88
2018-12-21T18:41:38.430Z,94968.81
2018-12-21T18:46:42.137Z,94929.92
2018-12-21T18:51:45.698Z,94945.48
2018-12-21T18:57:01.795Z,94914.06
2018-12-21T19:02:06.186Z,94985.91
2018-12-21T19:07:09.853Z,94940.28
2018-12-21T19:12:13.827Z,94919.05
2018-12-21T19:17:17.247Z,94936.62
2018-12-21T19:22:20.588Z,94960.09
2018-12-21T19:27:23.954Z,94906.41
2018-12-21T19:32:28.071Z,94923.16
2018-12-21T19:37:32.277Z,94912.02
2018-12-21T19:42:43.045Z,94924.75
2018-12-21T19:47:51.173Z,94981.53
2018-12-21T19:52:54.611Z,94939.19
2018-12-21T19:57:59.690Z,94972.97
2018-12-21T20:03:03.053Z,94927.09
2018-12-21T20:08:09.201Z,94958.94
2018-12-21T20:13:12.568Z,94952.98
2018-12-21T20:18:16.819Z,94955.27
2018-12-21T20:23:20.214Z,94991.18
2018-12-21T20:28:24.334Z,94950.00
2018-12-21T20:33:28.445Z,94960.70
2018-12-21T20:38:31.816Z,94942.86
2018-12-21T20:43:35.198Z,94943.98
2018-12-21T20:48:39.302Z,94948.77
2018-12-21T20:53:42.653Z,94940.56
2018-12-21T20:58:56.426Z,94948.91
2018-12-21T21:03:59.636Z,94972.78
2018-12-21T21:09:02.964Z,94933.56
2018-12-21T21:14:10.373Z,94956.14
2018-12-21T21:19:13.714Z,94943.13
2018-12-21T21:24:17.840Z,94930.33
2018-12-21T21:29:21.961Z,94951.78
2018-12-21T21:34:30.286Z,94996.50
2018-12-21T21:39:33.639Z,94960.26
2018-12-21T21:44:36.977Z,94944.87
2018-12-21T21:49:40.344Z,94928.83
2018-12-21T21:54:44.437Z,94951.98
2018-12-21T21:59:47.789Z,94951.52
2018-12-21T22:04:51.132Z,94956.81
2018-12-21T22:09:54.468Z,94943.67
2018-12-21T22:14:57.796Z,94938.88
2018-12-21T22:20:01.183Z,94929.88
2018-12-21T22:25:07.693Z,94954.75
2018-12-21T22:30:15.701Z,94919.22
2018-12-21T22:35:19.039Z,94957.76
2018-12-21T22:40:22.388Z,94929.05
2018-12-21T22:45:25.726Z,94923.03
2018-12-21T22:50:36.665Z,94921.23
2018-12-21T22:55:40.953Z,94960.45
2018-12-21T23:32:25.065Z,94906.06
2018-12-21T23:37:28.394Z,94901.40
2018-12-21T23:42:32.497Z,94933.56
2018-12-21T23:47:35.837Z,94988.67
2018-12-21T23:52:39.170Z,94914.17
2018-12-21T23:57:42.521Z,94929.47
